Time;durP1;ratioP1;P1;durP2;ratioP2;P2;SDS_P1;SDS_P2;PMS_P1;PMS_P2;Temp;Humidity;BMP_temperature;BMP_pressure;BME280_temperature;BME280_humidity;BME280_pressure;Samples;Min_cycle;Max_cycle;Signal;HPM_P1;HPM_P2
2021/09/06 00:01:12;;;;;;;13.43;7.72;;;;;;;;;;6155912;28;20144;-82
2021/09/06 00:04:14;;;;;;;13.85;7.70;;;;;;;;;;6153104;28;20040;-82
2021/09/06 00:07:16;;;;;;;13.20;7.93;;;;;;;;;;6155967;28;20118;-81
2021/09/06 00:10:33;;;;;;;13.98;8.05;;;;;;;;;;6153732;28;20043;-81
2021/09/06 00:13:35;;;;;;;14.35;8.25;;;;;;;;;;6174061;28;20043;-81
2021/09/06 00:16:37;;;;;;;14.60;7.68;;;;;;;;;;6165787;28;20061;-82
2021/09/06 00:19:39;;;;;;;14.27;7.15;;;;;;;;;;6171895;28;20054;-82
2021/09/06 00:22:41;;;;;;;11.73;7.38;;;;;;;;;;6150416;28;20114;-82
2021/09/06 00:25:43;;;;;;;12.85;7.30;;;;;;;;;;6149789;28;20094;-82
2021/09/06 00:28:45;;;;;;;13.27;7.55;;;;;;;;;;6153470;28;20472;-82
2021/09/06 00:31:47;;;;;;;13.40;7.88;;;;;;;;;;6167299;28;20065;-82
2021/09/06 00:34:48;;;;;;;12.45;7.38;;;;;;;;;;6150869;28;20461;-82
2021/09/06 00:37:50;;;;;;;13.02;7.88;;;;;;;;;;6149502;28;20047;-81
2021/09/06 00:40:52;;;;;;;13.45;7.50;;;;;;;;;;6168043;28;20046;-82
2021/09/06 00:43:54;;;;;;;13.48;7.80;;;;;;;;;;6169615;28;20043;-82
2021/09/06 00:47:00;;;;;;;12.50;8.05;;;;;;;;;;6192683;28;20393;-81
2021/09/06 00:50:06;;;;;;;13.90;7.93;;;;;;;;;;6215159;28;20348;-81
2021/09/06 00:53:09;;;;;;;14.30;8.20;;;;;;;;;;6196035;28;20049;-81
2021/09/06 00:56:11;;;;;;;15.90;8.50;;;;;;;;;;6183834;28;20050;-82
2021/09/06 00:59:13;;;;;;;15.57;8.70;;;;;;;;;;6173540;28;20039;-81
2021/09/06 01:02:14;;;;;;;14.57;7.53;;;;;;;;;;6174438;28;20197;-81
2021/09/06 01:05:18;;;;;;;14.52;7.97;;;;;;;;;;6191417;28;20053;-81
2021/09/06 01:08:40;;;;;;;15.18;8.07;;;;;;;;;;6161886;28;20043;-82
2021/09/06 01:12:05;;;;;;;13.65;7.32;;;;;;;;;;6128535;28;20050;-81
2021/09/06 01:15:16;;;;;;;15.20;7.72;;;;;;;;;;6181263;28;20051;-81
2021/09/06 01:18:18;;;;;;;13.27;7.65;;;;;;;;;;6194767;28;20047;-81
2021/09/06 01:21:22;;;;;;;14.52;7.43;;;;;;;;;;6179335;28;20101;-81
2021/09/06 01:24:47;;;;;;;14.25;8.18;;;;;;;;;;6151555;28;20054;-82
2021/09/06 01:27:52;;;;;;;16.27;7.68;;;;;;;;;;6193764;28;20129;-80
2021/09/06 01:30:59;;;;;;;14.68;7.97;;;;;;;;;;6178936;28;20050;-81
2021/09/06 01:34:01;;;;;;;14.80;8.02;;;;;;;;;;6194490;28;20050;-82
2021/09/06 01:37:03;;;;;;;14.95;8.25;;;;;;;;;;6169474;28;20397;-80
2021/09/06 01:40:12;;;;;;;14.50;7.65;;;;;;;;;;6171151;28;20508;-81
2021/09/06 01:43:14;;;;;;;15.77;8.25;;;;;;;;;;6166991;28;20039;-80
2021/09/06 01:46:16;;;;;;;15.70;8.40;;;;;;;;;;6163730;28;20051;-81
2021/09/06 01:49:18;;;;;;;14.23;8.57;;;;;;;;;;6194577;28;20046;-80
2021/09/06 01:52:22;;;;;;;19.90;9.10;;;;;;;;;;6177044;28;20046;-80
2021/09/06 01:55:27;;;;;;;17.38;9.23;;;;;;;;;;6186733;28;20452;-81
2021/09/06 01:58:35;;;;;;;15.38;8.18;;;;;;;;;;6194746;28;20070;-80
2021/09/06 02:01:37;;;;;;;14.70;8.13;;;;;;;;;;6172776;28;20053;-79
2021/09/06 02:04:39;;;;;;;16.27;8.00;;;;;;;;;;6177232;28;20038;-80
2021/09/06 02:07:41;;;;;;;15.32;8.10;;;;;;;;;;6180031;28;20555;-81
2021/09/06 02:10:43;;;;;;;14.73;8.57;;;;;;;;;;6162790;28;20047;-81
2021/09/06 02:13:47;;;;;;;15.27;8.30;;;;;;;;;;6192475;28;20043;-81
2021/09/06 02:16:52;;;;;;;13.48;7.93;;;;;;;;;;6144687;28;20049;-79
2021/09/06 02:20:07;;;;;;;14.30;7.80;;;;;;;;;;6169544;28;20394;-80
2021/09/06 02:23:08;;;;;;;13.55;7.88;;;;;;;;;;6153590;28;20058;-79
2021/09/06 02:26:12;;;;;;;15.30;7.07;;;;;;;;;;6151890;28;20070;-79
2021/09/06 02:29:14;;;;;;;12.00;7.28;;;;;;;;;;6169033;28;20105;-79
2021/09/06 02:32:28;;;;;;;14.50;7.40;;;;;;;;;;6144576;28;20048;-81
2021/09/06 02:35:56;;;;;;;13.88;7.88;;;;;;;;;;6167890;28;20051;-80
2021/09/06 02:38:58;;;;;;;15.95;7.47;;;;;;;;;;6166858;28;20045;-79
2021/09/06 02:42:00;;;;;;;14.77;8.57;;;;;;;;;;6175285;28;20051;-80
2021/09/06 02:45:08;;;;;;;13.77;7.55;;;;;;;;;;6167271;28;20045;-80
2021/09/06 02:48:10;;;;;;;14.07;7.40;;;;;;;;;;6137082;28;20043;-79
2021/09/06 02:51:12;;;;;;;14.23;8.52;;;;;;;;;;6167877;28;20067;-81
2021/09/06 02:54:15;;;;;;;11.65;7.13;;;;;;;;;;6153205;28;20058;-80
2021/09/06 02:57:17;;;;;;;14.70;7.18;;;;;;;;;;6148566;28;20412;-81
2021/09/06 03:00:22;;;;;;;13.70;7.45;;;;;;;;;;6148453;28;20055;-81
2021/09/06 03:03:26;;;;;;;13.85;7.60;;;;;;;;;;6147499;28;20047;-79
2021/09/06 03:06:27;;;;;;;14.15;7.28;;;;;;;;;;6133540;28;20059;-81
2021/09/06 03:09:29;;;;;;;17.00;8.38;;;;;;;;;;6166884;28;20057;-81
2021/09/06 03:12:32;;;;;;;17.15;8.55;;;;;;;;;;6171798;28;20039;-81
2021/09/06 03:15:34;;;;;;;14.73;8.43;;;;;;;;;;6172855;28;20146;-81
2021/09/06 03:18:36;;;;;;;16.48;9.07;;;;;;;;;;6150608;28;20065;-80
2021/09/06 03:22:04;;;;;;;16.92;9.07;;;;;;;;;;6159499;28;20047;-80
2021/09/06 03:25:06;;;;;;;15.50;8.38;;;;;;;;;;6165572;28;20047;-81
2021/09/06 03:28:08;;;;;;;14.57;8.20;;;;;;;;;;6165884;28;20051;-80
2021/09/06 03:31:12;;;;;;;12.57;7.28;;;;;;;;;;6158204;28;20046;-81
2021/09/06 03:34:14;;;;;;;14.23;8.00;;;;;;;;;;6147073;28;20122;-81
2021/09/06 03:37:19;;;;;;;14.82;8.05;;;;;;;;;;6168716;28;20043;-80
2021/09/06 03:40:22;;;;;;;15.05;8.40;;;;;;;;;;6164652;28;20055;-80
2021/09/06 03:43:24;;;;;;;20.45;8.90;;;;;;;;;;6143120;28;20050;-79
2021/09/06 03:46:26;;;;;;;16.00;9.30;;;;;;;;;;6151284;28;20058;-81
2021/09/06 03:49:31;;;;;;;16.58;9.05;;;;;;;;;;6145407;28;20050;-81
2021/09/06 03:52:34;;;;;;;17.27;9.10;;;;;;;;;;6182361;28;20042;-79
2021/09/06 03:55:36;;;;;;;16.65;8.77;;;;;;;;;;6064356;28;20083;-79
2021/09/06 03:58:40;;;;;;;17.05;8.95;;;;;;;;;;6126947;28;20053;-81
2021/09/06 04:01:42;;;;;;;18.38;8.90;;;;;;;;;;6161068;28;20549;-81
2021/09/06 04:04:45;;;;;;;19.00;8.70;;;;;;;;;;6147480;28;20051;-82
2021/09/06 04:07:47;;;;;;;14.93;8.52;;;;;;;;;;6163699;28;20051;-79
2021/09/06 04:10:49;;;;;;;16.13;8.40;;;;;;;;;;6147727;28;20479;-80
2021/09/06 04:13:54;;;;;;;16.23;8.75;;;;;;;;;;6161867;28;20047;-83
2021/09/06 04:16:55;;;;;;;16.45;8.32;;;;;;;;;;6171144;28;20043;-82
2021/09/06 04:19:57;;;;;;;15.50;8.65;;;;;;;;;;6169904;28;20134;-84
2021/09/06 04:22:59;;;;;;;17.02;9.00;;;;;;;;;;6168273;28;20051;-81
2021/09/06 04:26:01;;;;;;;16.67;8.65;;;;;;;;;;6162193;28;20748;-82
2021/09/06 04:29:09;;;;;;;14.38;7.40;;;;;;;;;;6161275;28;20043;-82
2021/09/06 04:32:11;;;;;;;11.05;6.97;;;;;;;;;;6161034;28;20043;-83
2021/09/06 04:35:13;;;;;;;14.60;7.63;;;;;;;;;;6155984;28;20448;-83
2021/09/06 04:38:16;;;;;;;14.07;8.05;;;;;;;;;;6160924;28;20050;-80
2021/09/06 04:41:17;;;;;;;16.55;8.27;;;;;;;;;;6162163;28;20051;-82
2021/09/06 04:44:19;;;;;;;18.35;8.27;;;;;;;;;;6161531;28;20039;-84
2021/09/06 04:47:21;;;;;;;16.73;8.07;;;;;;;;;;6176352;28;20057;-84
2021/09/06 04:50:25;;;;;;;14.97;7.87;;;;;;;;;;6169548;28;20042;-83
2021/09/06 04:53:27;;;;;;;;;;;;;;;;;;6159284;28;20343;-83
2021/09/06 04:56:30;;;;;;;13.85;8.25;;;;;;;;;;6152301;28;19923;-84
2021/09/06 04:59:37;;;;;;;15.35;7.85;;;;;;;;;;6170477;28;20050;-82
2021/09/06 05:02:39;;;;;;;14.68;7.88;;;;;;;;;;6169591;28;20049;-84
2021/09/06 05:05:41;;;;;;;12.00;7.57;;;;;;;;;;6188879;28;20057;-84
2021/09/06 05:08:47;;;;;;;14.90;7.22;;;;;;;;;;6185198;28;20418;-81
2021/09/06 05:11:48;;;;;;;14.35;7.65;;;;;;;;;;6162614;28;20500;-83
2021/09/06 05:14:51;;;;;;;16.15;8.15;;;;;;;;;;6137472;28;20504;-83
2021/09/06 05:17:55;;;;;;;14.77;8.40;;;;;;;;;;6154374;28;20046;-83
2021/09/06 05:20:57;;;;;;;15.80;8.65;;;;;;;;;;6170372;28;20050;-83
2021/09/06 05:23:58;;;;;;;15.82;8.75;;;;;;;;;;6150515;28;20058;-84
2021/09/06 05:27:00;;;;;;;22.10;10.10;;;;;;;;;;6129687;28;20046;-83
2021/09/06 05:30:03;;;;;;;19.88;9.60;;;;;;;;;;6145092;28;20042;-83
2021/09/06 05:33:09;;;;;;;22.55;9.82;;;;;;;;;;6161732;28;20047;-81
2021/09/06 05:36:13;;;;;;;19.10;10.07;;;;;;;;;;6180361;28;20117;-83
2021/09/06 05:39:15;;;;;;;20.17;9.60;;;;;;;;;;6161183;28;20177;-83
2021/09/06 05:42:30;;;;;;;18.08;9.35;;;;;;;;;;6160536;28;20059;-83
2021/09/06 05:45:32;;;;;;;18.40;8.77;;;;;;;;;;6162248;28;20035;-81
2021/09/06 05:48:34;;;;;;;17.80;8.82;;;;;;;;;;6185585;28;20063;-83
2021/09/06 05:51:36;;;;;;;16.58;8.75;;;;;;;;;;6168620;28;20046;-81
2021/09/06 05:54:46;;;;;;;16.60;9.10;;;;;;;;;;6167697;28;20039;-81
2021/09/06 05:57:50;;;;;;;19.50;9.85;;;;;;;;;;6168010;28;20043;-81
2021/09/06 06:00:53;;;;;;;19.85;9.68;;;;;;;;;;6157442;28;20043;-82
2021/09/06 06:03:56;;;;;;;;;;;;;;;;;;6150774;28;20040;-83
2021/09/06 06:07:03;;;;;;;19.90;9.70;;;;;;;;;;6165971;28;19926;-83
2021/09/06 06:10:08;;;;;;;22.58;10.68;;;;;;;;;;6165494;28;20421;-83
2021/09/06 06:13:11;;;;;;;17.42;9.77;;;;;;;;;;6150031;28;20043;-82
2021/09/06 06:16:13;;;;;;;21.02;11.60;;;;;;;;;;6174540;28;20055;-83
2021/09/06 06:19:15;;;;;;;23.10;11.23;;;;;;;;;;6165984;28;20062;-84
2021/09/06 06:22:35;;;;;;;20.33;10.20;;;;;;;;;;6176186;28;20051;-84
2021/09/06 06:25:55;;;;;;;23.15;11.77;;;;;;;;;;6151559;28;20048;-82
2021/09/06 06:28:59;;;;;;;21.58;10.70;;;;;;;;;;6149081;28;20038;-84
2021/09/06 06:32:02;;;;;;;20.47;10.67;;;;;;;;;;6197200;28;20054;-82
2021/09/06 06:35:04;;;;;;;20.38;11.00;;;;;;;;;;6187390;28;20063;-82
2021/09/06 06:38:07;;;;;;;18.35;10.07;;;;;;;;;;6165346;28;20050;-81
2021/09/06 06:41:12;;;;;;;23.33;11.45;;;;;;;;;;6165250;28;20126;-81
2021/09/06 06:44:20;;;;;;;24.33;11.10;;;;;;;;;;6167723;28;20122;-82
2021/09/06 06:47:21;;;;;;;22.27;10.77;;;;;;;;;;6203711;28;20085;-81
2021/09/06 06:50:24;;;;;;;20.90;10.65;;;;;;;;;;6195474;28;20106;-81
2021/09/06 06:53:28;;;;;;;20.52;10.55;;;;;;;;;;6173364;28;20057;-80
2021/09/06 06:56:29;;;;;;;22.10;12.20;;;;;;;;;;6161801;28;20091;-80
2021/09/06 06:59:36;;;;;;;22.98;11.30;;;;;;;;;;6168691;28;20111;-80
2021/09/06 07:02:38;;;;;;;18.55;11.18;;;;;;;;;;6164308;28;20102;-80
2021/09/06 07:05:42;;;;;;;22.52;11.13;;;;;;;;;;6162554;28;20055;-80
2021/09/06 07:08:44;;;;;;;22.75;12.15;;;;;;;;;;6165453;28;20408;-81
2021/09/06 07:11:46;;;;;;;22.80;11.38;;;;;;;;;;6163992;28;20050;-83
2021/09/06 07:14:48;;;;;;;20.95;11.35;;;;;;;;;;6163776;28;20039;-80
2021/09/06 07:17:49;;;;;;;23.17;11.52;;;;;;;;;;6167376;28;20039;-80
2021/09/06 07:20:52;;;;;;;20.48;11.88;;;;;;;;;;6169114;28;20054;-80
2021/09/06 07:23:54;;;;;;;25.50;12.23;;;;;;;;;;6168090;28;20047;-79
2021/09/06 07:26:57;;;;;;;27.17;12.40;;;;;;;;;;6186706;28;20049;-79
2021/09/06 07:29:58;;;;;;;25.27;12.05;;;;;;;;;;6171264;28;20446;-80
2021/09/06 07:33:02;;;;;;;23.88;12.35;;;;;;;;;;6168619;28;20585;-82
2021/09/06 07:36:04;;;;;;;29.40;13.63;;;;;;;;;;6183909;28;20050;-83
2021/09/06 07:39:06;;;;;;;24.48;12.63;;;;;;;;;;6184385;28;20423;-82
2021/09/06 07:42:09;;;;;;;27.08;12.73;;;;;;;;;;6167860;28;20051;-82
2021/09/06 07:45:14;;;;;;;22.30;12.43;;;;;;;;;;6173646;28;20043;-83
2021/09/06 07:48:16;;;;;;;25.17;12.55;;;;;;;;;;6167743;28;20039;-83
2021/09/06 07:51:22;;;;;;;21.23;11.73;;;;;;;;;;6169009;28;20752;-81
2021/09/06 07:54:25;;;;;;;25.45;13.07;;;;;;;;;;6159386;28;20062;-82
2021/09/06 07:57:29;;;;;;;21.20;12.23;;;;;;;;;;6144491;28;20755;-83
2021/09/06 08:00:31;;;;;;;25.13;13.23;;;;;;;;;;6156854;28;20039;-83
2021/09/06 08:03:34;;;;;;;;;;;;;;;;;;6169779;28;20039;-82
2021/09/06 08:06:36;;;;;;;21.70;12.13;;;;;;;;;;6153578;28;20299;-82
2021/09/06 08:09:39;;;;;;;21.88;12.38;;;;;;;;;;6159351;28;20042;-84
2021/09/06 08:12:42;;;;;;;20.60;11.98;;;;;;;;;;6177770;28;20043;-82
2021/09/06 08:15:44;;;;;;;22.92;12.57;;;;;;;;;;6173514;28;20059;-83
2021/09/06 08:18:46;;;;;;;24.50;13.30;;;;;;;;;;6134870;28;20054;-82
2021/09/06 08:21:48;;;;;;;26.80;13.10;;;;;;;;;;6172126;28;20051;-82
2021/09/06 08:24:50;;;;;;;20.65;13.10;;;;;;;;;;6163065;28;20043;-81
2021/09/06 08:27:52;;;;;;;22.77;13.02;;;;;;;;;;6129813;28;20617;-81
2021/09/06 08:30:53;;;;;;;21.60;12.68;;;;;;;;;;6177544;28;20054;-81
2021/09/06 08:33:58;;;;;;;23.75;13.40;;;;;;;;;;6172266;28;20093;-82
2021/09/06 08:37:01;;;;;;;23.50;13.80;;;;;;;;;;6171853;28;20050;-82
2021/09/06 08:40:07;;;;;;;22.42;13.82;;;;;;;;;;6191540;28;20129;-82
2021/09/06 08:43:10;;;;;;;21.25;12.77;;;;;;;;;;6188027;28;20101;-83
2021/09/06 08:46:13;;;;;;;19.77;12.63;;;;;;;;;;6165744;28;20047;-83
2021/09/06 08:49:15;;;;;;;20.07;12.90;;;;;;;;;;6154400;28;20133;-83
2021/09/06 08:52:17;;;;;;;22.70;13.23;;;;;;;;;;6162143;28;20566;-83
2021/09/06 08:55:19;;;;;;;20.08;13.18;;;;;;;;;;6165936;28;20733;-83
2021/09/06 08:58:25;;;;;;;18.17;12.88;;;;;;;;;;6153365;28;20046;-82
2021/09/06 09:01:37;;;;;;;;;;;;;;;;;;6167259;28;20397;-82
2021/09/06 09:05:06;;;;;;;16.02;11.40;;;;;;;;;;6164158;28;19945;-81
2021/09/06 09:08:28;;;;;;;16.63;11.77;;;;;;;;;;6191112;28;20046;-79
2021/09/06 09:11:37;;;;;;;17.13;11.35;;;;;;;;;;6148849;28;20540;-80
2021/09/06 09:14:52;;;;;;;17.88;12.15;;;;;;;;;;6151040;28;20047;-81
2021/09/06 09:18:32;;;;;;;17.70;11.48;;;;;;;;;;6139104;28;20054;-80
2021/09/06 09:22:01;;;;;;;17.02;11.40;;;;;;;;;;6142873;28;20047;-81
2021/09/06 09:25:15;;;;;;;16.52;10.75;;;;;;;;;;6165815;28;20059;-80
2021/09/06 09:28:42;;;;;;;14.48;10.25;;;;;;;;;;6186974;28;20508;-81
2021/09/06 09:32:09;;;;;;;12.90;9.60;;;;;;;;;;6165942;28;20055;-80
2021/09/06 09:35:30;;;;;;;12.10;9.05;;;;;;;;;;6179569;28;20063;-81
2021/09/06 09:38:35;;;;;;;14.75;9.77;;;;;;;;;;6176838;28;20050;-80
2021/09/06 09:41:39;;;;;;;15.27;10.93;;;;;;;;;;6154683;28;20051;-81
2021/09/06 09:44:46;;;;;;;14.38;10.35;;;;;;;;;;6153700;28;20039;-81
2021/09/06 09:48:05;;;;;;;15.43;10.32;;;;;;;;;;6160288;28;20049;-81
2021/09/06 09:51:09;;;;;;;15.25;9.68;;;;;;;;;;6180363;28;20045;-80
2021/09/06 09:54:12;;;;;;;13.63;10.00;;;;;;;;;;6191206;28;20066;-81
2021/09/06 09:57:15;;;;;;;15.20;9.18;;;;;;;;;;6180153;28;20484;-81
2021/09/06 10:00:17;;;;;;;9.88;7.75;;;;;;;;;;6177075;28;20043;-81
2021/09/06 10:03:23;;;;;;;9.35;7.03;;;;;;;;;;6192427;28;20053;-81
2021/09/06 10:06:26;;;;;;;8.65;6.43;;;;;;;;;;6191539;28;20042;-81
2021/09/06 10:09:41;;;;;;;8.48;6.28;;;;;;;;;;6191088;28;20051;-81
2021/09/06 10:12:43;;;;;;;10.50;6.78;;;;;;;;;;6190569;28;20038;-82
2021/09/06 10:16:01;;;;;;;9.85;6.55;;;;;;;;;;6178117;28;20039;-81
2021/09/06 10:19:08;;;;;;;9.85;7.30;;;;;;;;;;6176609;28;20062;-81
2021/09/06 10:22:27;;;;;;;8.23;6.97;;;;;;;;;;6190506;28;20058;-81
2021/09/06 10:25:32;;;;;;;10.73;8.13;;;;;;;;;;6156861;28;20560;-82
2021/09/06 10:28:35;;;;;;;11.55;8.32;;;;;;;;;;6166072;28;20071;-82
2021/09/06 10:31:38;;;;;;;11.07;8.52;;;;;;;;;;6182264;28;20043;-81
2021/09/06 10:34:41;;;;;;;9.95;7.85;;;;;;;;;;6173627;28;20053;-81
2021/09/06 10:37:46;;;;;;;10.73;7.68;;;;;;;;;;6175338;28;20134;-81
2021/09/06 10:41:08;;;;;;;9.02;7.20;;;;;;;;;;6177406;28;20432;-81
2021/09/06 10:44:10;;;;;;;9.40;7.82;;;;;;;;;;6172567;28;20595;-82
2021/09/06 10:47:12;;;;;;;8.77;7.32;;;;;;;;;;6186853;28;20068;-82
2021/09/06 10:50:18;;;;;;;9.45;7.97;;;;;;;;;;6190459;28;20352;-82
2021/09/06 10:53:23;;;;;;;10.73;7.93;;;;;;;;;;6190088;28;20078;-81
2021/09/06 10:56:27;;;;;;;9.05;7.78;;;;;;;;;;6191048;28;20157;-82
2021/09/06 10:59:31;;;;;;;8.73;7.43;;;;;;;;;;6169783;28;20082;-82
2021/09/06 11:02:34;;;;;;;11.07;7.72;;;;;;;;;;6183108;28;20039;-81
2021/09/06 11:05:36;;;;;;;8.50;7.60;;;;;;;;;;6175372;28;20074;-82
2021/09/06 11:08:39;;;;;;;8.70;7.03;;;;;;;;;;6173052;28;20440;-81
2021/09/06 11:11:43;;;;;;;9.18;7.07;;;;;;;;;;6175460;28;20113;-80
2021/09/06 11:14:47;;;;;;;9.52;7.53;;;;;;;;;;6175067;28;20122;-81
2021/09/06 11:17:59;;;;;;;10.13;7.85;;;;;;;;;;6150672;28;20122;-81
2021/09/06 11:21:01;;;;;;;8.75;7.55;;;;;;;;;;6150448;28;20814;-82
2021/09/06 11:24:06;;;;;;;9.85;7.70;;;;;;;;;;6151407;28;20043;-81
2021/09/06 11:27:42;;;;;;;9.18;7.53;;;;;;;;;;6167219;28;20053;-81
2021/09/06 11:30:45;;;;;;;11.68;7.90;;;;;;;;;;6152472;28;20106;-82
2021/09/06 11:34:04;;;;;;;9.80;7.28;;;;;;;;;;6150692;28;20050;-81
2021/09/06 11:37:08;;;;;;;10.25;7.75;;;;;;;;;;6189996;28;20051;-82
2021/09/06 11:40:10;;;;;;;8.88;7.50;;;;;;;;;;6173746;28;20122;-81
2021/09/06 11:43:13;;;;;;;10.98;8.00;;;;;;;;;;6187778;28;20179;-81
2021/09/06 11:46:16;;;;;;;10.40;8.60;;;;;;;;;;6199118;28;20102;-81
2021/09/06 11:49:18;;;;;;;12.52;7.88;;;;;;;;;;6208263;28;20050;-81
2021/09/06 11:52:30;;;;;;;9.18;7.28;;;;;;;;;;6197466;28;20181;-82
2021/09/06 11:55:32;;;;;;;8.80;7.07;;;;;;;;;;6187279;28;20582;-82
2021/09/06 11:58:34;;;;;;;;;;;;;;;;;;6188594;28;20050;-82
2021/09/06 12:01:37;;;;;;;8.65;7.68;;;;;;;;;;6166649;28;19923;-82
2021/09/06 12:04:39;;;;;;;9.02;7.35;;;;;;;;;;6146536;28;20039;-83
2021/09/06 12:08:02;;;;;;;9.57;7.82;;;;;;;;;;6148416;28;20567;-83
2021/09/06 12:11:10;;;;;;;8.13;6.82;;;;;;;;;;6148939;28;20150;-82
2021/09/06 12:14:12;;;;;;;10.20;7.45;;;;;;;;;;6145588;28;20050;-80
2021/09/06 12:17:14;;;;;;;8.88;7.43;;;;;;;;;;6164116;28;20043;-82
2021/09/06 12:20:15;;;;;;;10.52;8.00;;;;;;;;;;6132419;28;20154;-82
2021/09/06 12:23:29;;;;;;;8.98;7.13;;;;;;;;;;6151334;28;20122;-82
2021/09/06 12:26:48;;;;;;;9.77;6.72;;;;;;;;;;6150207;28;20074;-82
2021/09/06 12:29:57;;;;;;;8.93;7.60;;;;;;;;;;6149352;28;20058;-82
2021/09/06 12:32:59;;;;;;;13.55;7.70;;;;;;;;;;6149178;28;20102;-82
2021/09/06 12:36:03;;;;;;;9.40;7.68;;;;;;;;;;6167265;28;20050;-83
2021/09/06 12:39:04;;;;;;;8.35;7.45;;;;;;;;;;6181424;28;20063;-82
2021/09/06 12:42:06;;;;;;;8.30;7.43;;;;;;;;;;6165036;28;20047;-81
2021/09/06 12:45:08;;;;;;;11.02;7.32;;;;;;;;;;6179188;28;20051;-82
2021/09/06 12:48:10;;;;;;;8.50;7.18;;;;;;;;;;6192594;28;20050;-81
2021/09/06 12:51:12;;;;;;;9.60;7.32;;;;;;;;;;6196417;28;20062;-82
2021/09/06 12:54:14;;;;;;;11.47;7.80;;;;;;;;;;6164338;28;20083;-81
2021/09/06 12:57:15;;;;;;;9.60;7.30;;;;;;;;;;6148236;28;21003;-80
2021/09/06 13:00:17;;;;;;;9.65;7.13;;;;;;;;;;6162893;28;20043;-81
2021/09/06 13:03:19;;;;;;;9.40;7.00;;;;;;;;;;6143834;28;20419;-82
2021/09/06 13:06:21;;;;;;;8.80;7.30;;;;;;;;;;6129631;28;20424;-82
2021/09/06 13:09:23;;;;;;;10.15;6.60;;;;;;;;;;6145640;28;20047;-82
2021/09/06 13:12:24;;;;;;;8.53;6.40;;;;;;;;;;6160108;28;20058;-82
2021/09/06 13:15:26;;;;;;;7.30;6.00;;;;;;;;;;6146249;28;20122;-82
2021/09/06 13:18:27;;;;;;;9.05;6.95;;;;;;;;;;6145179;28;20051;-82
2021/09/06 13:21:29;;;;;;;8.45;6.75;;;;;;;;;;6144993;28;20050;-82
2021/09/06 13:24:31;;;;;;;8.07;7.07;;;;;;;;;;6166980;28;20087;-82
2021/09/06 13:27:33;;;;;;;7.28;6.22;;;;;;;;;;6146893;28;20110;-83
2021/09/06 13:30:35;;;;;;;7.63;6.22;;;;;;;;;;6172443;28;20050;-83
2021/09/06 13:33:37;;;;;;;7.70;6.13;;;;;;;;;;6160621;28;20131;-83
2021/09/06 13:36:39;;;;;;;6.20;5.53;;;;;;;;;;6167460;28;20047;-82
2021/09/06 13:39:41;;;;;;;6.13;5.30;;;;;;;;;;6183225;28;20126;-82
2021/09/06 13:42:43;;;;;;;6.82;5.47;;;;;;;;;;6168205;28;20142;-82
2021/09/06 13:45:44;;;;;;;6.38;5.25;;;;;;;;;;6165695;28;20126;-82
2021/09/06 13:48:46;;;;;;;6.22;5.25;;;;;;;;;;6175962;28;20043;-83
2021/09/06 13:51:48;;;;;;;6.55;5.40;;;;;;;;;;6178063;28;20057;-82
2021/09/06 13:54:49;;;;;;;7.07;5.30;;;;;;;;;;6177327;28;20122;-83
2021/09/06 13:57:51;;;;;;;6.10;5.45;;;;;;;;;;6157181;28;20059;-82
2021/09/06 14:00:53;;;;;;;6.68;5.43;;;;;;;;;;6168297;28;20039;-82
2021/09/06 14:03:54;;;;;;;7.40;5.20;;;;;;;;;;6190522;28;20415;-83
2021/09/06 14:06:56;;;;;;;7.97;5.60;;;;;;;;;;6190526;28;20050;-82
2021/09/06 14:09:58;;;;;;;7.22;5.45;;;;;;;;;;6166833;28;20089;-82
2021/09/06 14:12:59;;;;;;;6.57;5.47;;;;;;;;;;6159424;28;20560;-82
2021/09/06 14:16:01;;;;;;;6.45;4.97;;;;;;;;;;6158725;28;20179;-83
2021/09/06 14:19:03;;;;;;;6.05;4.88;;;;;;;;;;6167973;28;20043;-82
2021/09/06 14:22:05;;;;;;;6.40;5.45;;;;;;;;;;6169748;28;20050;-82
2021/09/06 14:25:07;;;;;;;6.05;5.05;;;;;;;;;;6161178;28;20535;-82
2021/09/06 14:28:08;;;;;;;6.43;5.45;;;;;;;;;;6172818;28;20111;-82
2021/09/06 14:31:10;;;;;;;5.82;5.18;;;;;;;;;;6163872;28;20051;-82
2021/09/06 14:34:12;;;;;;;6.72;5.85;;;;;;;;;;6168365;28;20555;-82
2021/09/06 14:37:15;;;;;;;6.50;5.30;;;;;;;;;;6168544;28;20048;-80
2021/09/06 14:40:16;;;;;;;7.57;5.95;;;;;;;;;;6151870;28;20745;-80
2021/09/06 14:43:18;;;;;;;8.15;5.43;;;;;;;;;;6168085;28;20126;-79
2021/09/06 14:46:43;;;;;;;8.40;5.18;;;;;;;;;;6155270;28;20497;-79
2021/09/06 14:49:44;;;;;;;7.30;5.32;;;;;;;;;;6171146;28;20055;-79
2021/09/06 14:52:46;;;;;;;8.50;5.33;;;;;;;;;;6163069;28;20049;-80
2021/09/06 14:55:47;;;;;;;8.25;5.47;;;;;;;;;;6147634;28;20047;-79
2021/09/06 14:58:49;;;;;;;10.30;5.83;;;;;;;;;;6131241;28;20046;-80
2021/09/06 15:01:51;;;;;;;6.33;5.30;;;;;;;;;;6166741;28;20046;-79
2021/09/06 15:04:53;;;;;;;6.82;5.63;;;;;;;;;;6167763;28;20446;-80
2021/09/06 15:07:54;;;;;;;7.60;5.73;;;;;;;;;;6152623;28;20054;-80
2021/09/06 15:10:56;;;;;;;7.47;6.07;;;;;;;;;;6169870;28;20053;-80
2021/09/06 15:13:58;;;;;;;7.72;5.90;;;;;;;;;;6152033;28;20042;-80
2021/09/06 15:17:00;;;;;;;8.93;6.88;;;;;;;;;;6151193;28;20061;-79
2021/09/06 15:20:01;;;;;;;8.63;6.50;;;;;;;;;;6169048;28;20048;-80
2021/09/06 15:23:03;;;;;;;9.40;7.40;;;;;;;;;;6168255;28;20313;-80
2021/09/06 15:26:05;;;;;;;10.05;7.32;;;;;;;;;;6149073;28;20050;-80
2021/09/06 15:29:07;;;;;;;9.75;6.95;;;;;;;;;;6171227;28;20046;-79
2021/09/06 15:32:09;;;;;;;9.95;7.25;;;;;;;;;;6173786;28;20177;-80
2021/09/06 15:35:11;;;;;;;8.75;7.55;;;;;;;;;;6157297;28;20038;-80
2021/09/06 15:38:13;;;;;;;8.93;7.00;;;;;;;;;;6178249;28;20086;-79
2021/09/06 15:41:16;;;;;;;8.70;7.05;;;;;;;;;;6152996;28;20057;-79
2021/09/06 15:44:20;;;;;;;9.00;7.03;;;;;;;;;;6125944;28;20531;-79
2021/09/06 15:47:22;;;;;;;9.63;6.78;;;;;;;;;;6158226;28;20065;-80
2021/09/06 15:50:26;;;;;;;9.33;6.50;;;;;;;;;;6149854;28;20104;-80
2021/09/06 15:53:27;;;;;;;9.65;6.75;;;;;;;;;;6136387;28;20460;-79
2021/09/06 15:56:29;;;;;;;8.77;6.93;;;;;;;;;;6145734;28;20051;-79
2021/09/06 15:59:34;;;;;;;7.30;6.20;;;;;;;;;;6133353;28;20057;-80
2021/09/06 16:02:35;;;;;;;10.02;6.72;;;;;;;;;;6149308;28;20126;-78
2021/09/06 16:05:37;;;;;;;9.00;6.60;;;;;;;;;;6166461;28;20057;-78
2021/09/06 16:08:39;;;;;;;9.63;6.87;;;;;;;;;;6148866;28;20065;-78
2021/09/06 16:11:41;;;;;;;8.98;7.05;;;;;;;;;;6160377;28;20043;-79
2021/09/06 16:14:42;;;;;;;10.77;6.95;;;;;;;;;;6150642;28;20070;-81
2021/09/06 16:17:44;;;;;;;8.93;7.07;;;;;;;;;;6169433;28;20043;-81
2021/09/06 16:20:46;;;;;;;8.80;7.00;;;;;;;;;;6176156;28;20125;-81
2021/09/06 16:23:47;;;;;;;12.40;7.30;;;;;;;;;;6161229;28;20074;-81
2021/09/06 16:26:52;;;;;;;9.23;6.68;;;;;;;;;;6174013;28;20042;-80
2021/09/06 16:29:55;;;;;;;10.57;6.75;;;;;;;;;;6165199;28;20415;-80
2021/09/06 16:32:56;;;;;;;9.80;7.30;;;;;;;;;;6165220;28;20149;-79
2021/09/06 16:35:58;;;;;;;8.30;6.53;;;;;;;;;;6148852;28;21700;-79
2021/09/06 16:38:59;;;;;;;9.10;6.97;;;;;;;;;;6166755;28;20065;-81
2021/09/06 16:42:01;;;;;;;8.80;7.30;;;;;;;;;;6165968;28;20054;-80
2021/09/06 16:45:05;;;;;;;9.57;6.77;;;;;;;;;;6161063;28;20940;-80
2021/09/06 16:48:07;;;;;;;9.75;7.05;;;;;;;;;;6150115;28;20051;-80
2021/09/06 16:51:10;;;;;;;9.93;7.05;;;;;;;;;;6182271;28;20046;-80
2021/09/06 16:54:12;;;;;;;8.48;7.07;;;;;;;;;;6145245;28;20509;-80
2021/09/06 16:57:13;;;;;;;10.47;6.80;;;;;;;;;;6162059;28;20051;-80
2021/09/06 17:00:15;;;;;;;8.70;6.78;;;;;;;;;;6145549;28;20610;-80
2021/09/06 17:03:17;;;;;;;8.77;7.00;;;;;;;;;;6146690;28;20058;-78
2021/09/06 17:06:19;;;;;;;11.50;6.97;;;;;;;;;;6144264;28;20171;-80
2021/09/06 17:09:21;;;;;;;10.10;6.93;;;;;;;;;;6144573;28;20109;-79
2021/09/06 17:12:22;;;;;;;8.27;6.63;;;;;;;;;;6160554;28;20175;-79
2021/09/06 17:15:24;;;;;;;12.27;7.22;;;;;;;;;;6159628;28;20342;-78
2021/09/06 17:18:25;;;;;;;10.50;7.63;;;;;;;;;;6140205;28;20142;-78
2021/09/06 17:21:27;;;;;;;11.73;8.23;;;;;;;;;;6142936;28;20055;-80
2021/09/06 17:24:30;;;;;;;11.07;8.02;;;;;;;;;;6136069;28;20047;-81
2021/09/06 17:27:31;;;;;;;;;;;;;;;;;;6172298;28;20070;-81
2021/09/06 17:30:33;;;;;;;12.27;7.80;;;;;;;;;;6165809;28;19922;-80
2021/09/06 17:33:35;;;;;;;10.23;8.07;;;;;;;;;;6136184;28;20650;-80
2021/09/06 17:36:36;;;;;;;10.38;7.70;;;;;;;;;;6170573;28;20043;-80
2021/09/06 17:39:38;;;;;;;9.60;7.65;;;;;;;;;;6156014;28;20071;-81
2021/09/06 17:42:40;;;;;;;10.63;8.33;;;;;;;;;;6146606;28;20047;-81
2021/09/06 17:45:44;;;;;;;11.57;7.75;;;;;;;;;;6147251;28;20094;-80
2021/09/06 17:48:47;;;;;;;10.45;7.80;;;;;;;;;;6171748;28;20436;-81
2021/09/06 17:51:48;;;;;;;11.33;8.20;;;;;;;;;;6155087;28;20115;-81
2021/09/06 17:54:50;;;;;;;14.13;7.70;;;;;;;;;;6152578;28;20071;-79
2021/09/06 17:57:52;;;;;;;10.48;7.45;;;;;;;;;;6137703;28;20047;-81
2021/09/06 18:00:54;;;;;;;11.68;7.70;;;;;;;;;;6134310;28;20048;-81
2021/09/06 18:03:56;;;;;;;12.07;8.05;;;;;;;;;;6135452;28;20047;-81
2021/09/06 18:06:57;;;;;;;12.13;8.10;;;;;;;;;;6120210;28;20044;-79
2021/09/06 18:10:02;;;;;;;10.70;8.02;;;;;;;;;;6128363;28;20049;-80
2021/09/06 18:13:04;;;;;;;14.40;8.57;;;;;;;;;;6169024;28;20054;-80